Time;durP1;ratioP1;P1;durP2;ratioP2;P2;SDS_P1;SDS_P2;PMS_P1;PMS_P2;Temp;Humidity;BMP_temperature;BMP_pressure;BME280_temperature;BME280_humidity;BME280_pressure;Samples;Min_cycle;Max_cycle;Signal;HPM_P1;HPM_P2
2022/04/17 00:00:25;;;;;;;4.07;1.65;;;;;;;3.45;55.09;99875.41;5042658;28;20504;-39
2022/04/17 00:02:51;;;;;;;1.75;1.10;;;;;;;3.45;54.93;99877.13;5045334;28;20064;-39
2022/04/17 00:05:18;;;;;;;3.47;1.67;;;;;;;3.46;54.71;99878.81;5046842;28;20048;-38
2022/04/17 00:07:44;;;;;;;5.20;2.50;;;;;;;3.38;54.10;99882.28;5049040;28;20037;-38
2022/04/17 00:10:11;;;;;;;2.92;2.10;;;;;;;3.44;54.62;99894.25;5047282;28;20520;-38
2022/04/17 00:12:39;;;;;;;2.30;1.48;;;;;;;3.45;54.45;99895.13;5047071;28;20559;-39
2022/04/17 00:15:12;;;;;;;6.65;4.20;;;;;;;3.41;54.19;99894.25;5047817;28;20052;-39
2022/04/17 00:17:42;;;;;;;6.10;3.55;;;;;;;3.41;54.06;99895.09;5048816;28;20090;-39
2022/04/17 00:20:11;;;;;;;5.82;4.00;;;;;;;3.40;54.15;99892.56;5076464;28;20036;-39
2022/04/17 00:22:37;;;;;;;5.60;3.35;;;;;;;3.28;54.17;99878.03;5061765;28;20447;-38
2022/04/17 00:25:03;;;;;;;8.25;4.40;;;;;;;3.36;54.52;99891.69;5056781;28;20059;-38
2022/04/17 00:27:29;;;;;;;5.10;3.08;;;;;;;3.36;54.11;99898.53;5048414;28;20381;-38
2022/04/17 00:29:55;;;;;;;6.43;5.05;;;;;;;3.36;53.80;99894.25;5048173;28;20501;-38
2022/04/17 00:32:21;;;;;;;5.72;4.03;;;;;;;3.35;54.02;99905.41;5049559;28;20052;-38
2022/04/17 00:34:46;;;;;;;11.80;6.18;;;;;;;3.35;54.16;99896.81;5048207;28;20052;-38
2022/04/17 00:37:12;;;;;;;5.75;4.25;;;;;;;3.34;54.31;99906.28;5048128;28;20037;-38
2022/04/17 00:39:39;;;;;;;6.13;4.15;;;;;;;3.33;54.43;99902.00;5048736;28;20564;-38
2022/04/17 00:42:07;;;;;;;11.10;7.07;;;;;;;3.31;54.46;99908.84;5048599;28;20048;-39
2022/04/17 00:44:32;;;;;;;11.52;7.85;;;;;;;3.20;54.34;99892.56;5048312;28;20037;-38
2022/04/17 00:46:58;;;;;;;10.40;6.50;;;;;;;3.30;53.86;99911.41;5049160;28;20067;-38
2022/04/17 00:49:24;;;;;;;9.88;6.35;;;;;;;3.30;54.04;99919.09;5049759;28;20060;-38
2022/04/17 00:51:50;;;;;;;6.75;2.60;;;;;;;3.29;54.01;99909.72;5057508;28;20178;-38
2022/04/17 00:54:18;;;;;;;2.45;1.80;;;;;;;3.14;53.81;99886.63;5041570;28;20052;-38
2022/04/17 00:56:43;;;;;;;6.57;4.70;;;;;;;3.26;54.24;99910.56;5064506;28;20121;-37
2022/04/17 00:59:09;;;;;;;3.70;1.80;;;;;;;3.26;54.11;99922.53;5046974;28;20125;-38
2022/04/17 01:01:36;;;;;;;3.78;1.38;;;;;;;3.22;53.74;99919.13;5048159;28;20064;-39
2022/04/17 01:04:03;;;;;;;6.88;4.50;;;;;;;3.21;54.13;99911.41;5047894;28;20048;-38
2022/04/17 01:06:30;;;;;;;3.08;1.90;;;;;;;3.18;53.96;99908.88;5048550;28;20048;-39
2022/04/17 01:08:56;;;;;;;15.07;2.83;;;;;;;2.96;54.06;99884.91;5049425;28;20049;-39
2022/04/17 01:11:22;;;;;;;3.40;1.40;;;;;;;3.14;54.10;99920.00;5048546;28;20523;-38
2022/04/17 01:13:48;;;;;;;4.53;1.80;;;;;;;3.12;54.22;99914.88;5055064;28;20049;-38
2022/04/17 01:16:16;;;;;;;3.75;2.10;;;;;;;3.08;53.98;99915.72;5062279;28;20500;-40
2022/04/17 01:19:11;;;;;;;4.30;2.25;;;;;;;3.05;54.06;99908.00;5051741;28;20063;-38
2022/04/17 01:21:41;;;;;;;3.95;2.58;;;;;;;3.02;54.04;99912.31;5026968;28;20421;-38
2022/04/17 01:26:56;;;;;;;3.38;1.67;;;;;;;2.81;54.35;99888.34;5067581;28;20045;-38
2022/04/17 01:29:31;;;;;;;5.68;1.80;;;;;;;2.97;54.24;99910.59;5062598;28;20045;-38
2022/04/17 01:32:08;;;;;;;6.35;4.30;;;;;;;2.96;54.44;99910.59;5032352;28;20045;-38
2022/04/17 01:34:35;;;;;;;13.65;3.75;;;;;;;2.96;53.90;99913.16;5057343;28;20037;-38
2022/04/17 01:37:01;;;;;;;5.25;2.15;;;;;;;2.93;54.39;99908.84;5059316;28;20671;-38
2022/04/17 01:39:27;;;;;;;3.28;1.40;;;;;;;2.92;54.20;99906.31;5064370;28;20044;-37
2022/04/17 01:41:54;;;;;;;4.22;1.88;;;;;;;2.89;54.07;99911.44;5061969;28;20048;-38
2022/04/17 01:44:20;;;;;;;7.82;3.78;;;;;;;2.87;54.50;99902.88;5050113;28;20041;-38
2022/04/17 01:46:47;;;;;;;5.38;1.98;;;;;;;2.87;54.54;99903.75;5052363;28;20048;-38
2022/04/17 01:49:15;;;;;;;2.72;1.20;;;;;;;2.87;54.51;99903.75;5068869;28;20420;-40
2022/04/17 01:51:42;;;;;;;2.78;1.35;;;;;;;2.73;54.25;99889.16;5069868;28;20041;-39
2022/04/17 01:54:10;;;;;;;2.83;1.20;;;;;;;2.84;54.46;99908.88;5057121;28;20532;-38
2022/04/17 01:56:37;;;;;;;3.75;1.40;;;;;;;2.81;54.35;99915.72;5060223;28;20093;-37
2022/04/17 01:59:05;;;;;;;2.40;0.82;;;;;;;2.72;54.61;99896.00;5053657;28;20037;-40
2022/04/17 02:01:35;;;;;;;2.33;1.00;;;;;;;2.68;54.50;99894.31;5052522;28;20057;-39
2022/04/17 02:04:01;;;;;;;4.22;1.30;;;;;;;2.75;54.62;99911.44;5051365;28;20048;-38
2022/04/17 02:06:27;;;;;;;2.22;1.00;;;;;;;2.72;54.79;99906.28;5051306;28;20512;-38
2022/04/17 02:08:54;;;;;;;4.47;1.08;;;;;;;2.66;54.41;99908.88;5062948;28;20135;-38
2022/04/17 02:11:20;;;;;;;3.38;1.02;;;;;;;2.70;54.43;99914.84;5053220;28;20498;-38
2022/04/17 02:13:48;;;;;;;3.83;0.70;;;;;;;2.58;54.36;99889.16;5064153;28;20036;-38
2022/04/17 02:16:17;;;;;;;2.97;0.80;;;;;;;2.65;54.29;99909.72;5043912;28;20032;-38
2022/04/17 02:18:47;;;;;;;1.75;0.80;;;;;;;2.67;54.11;99912.28;5049907;28;20091;-39
2022/04/17 02:21:17;;;;;;;1.63;0.98;;;;;;;2.63;54.74;99908.84;5051170;28;20468;-39
2022/04/17 02:23:43;;;;;;;;;;;;;;;2.60;54.52;99914.00;5051459;28;20539;-38
2022/04/17 02:26:10;;;;;;;1.20;0.82;;;;;;;2.46;54.28;99888.28;5067836;28;19917;-37
2022/04/17 02:28:37;;;;;;;2.45;0.95;;;;;;;2.54;54.73;99903.72;5059711;28;20037;-38
2022/04/17 02:31:04;;;;;;;1.80;0.80;;;;;;;2.51;54.56;99898.59;5063430;28;20048;-38
2022/04/17 02:33:31;;;;;;;2.83;1.30;;;;;;;2.51;54.95;99906.28;5051262;28;20136;-38
2022/04/17 02:35:57;;;;;;;3.83;1.05;;;;;;;2.49;54.60;99903.72;5054798;28;20044;-38
2022/04/17 02:38:23;;;;;;;1.63;0.90;;;;;;;2.48;54.87;99903.69;5063826;28;20906;-37
2022/04/17 02:40:49;;;;;;;2.20;0.60;;;;;;;2.47;54.97;99907.13;5049278;28;20090;-38
2022/04/17 02:43:14;;;;;;;3.50;0.80;;;;;;;2.46;54.76;99906.25;5050275;28;20044;-38
2022/04/17 02:45:42;;;;;;;1.95;0.80;;;;;;;2.46;54.77;99910.56;5049771;28;20102;-38
2022/04/17 02:48:08;;;;;;;2.53;0.70;;;;;;;2.42;54.56;99906.25;5050798;28;20037;-37
2022/04/17 02:50:34;;;;;;;2.33;0.90;;;;;;;2.44;54.49;99909.69;5050471;28;20507;-38
2022/04/17 02:53:02;;;;;;;2.10;0.60;;;;;;;2.43;54.47;99916.53;5050519;28;20051;-37
2022/04/17 02:55:28;;;;;;;1.70;0.80;;;;;;;2.45;54.71;99912.25;5050364;28;20041;-39
2022/04/17 02:57:55;;;;;;;1.60;1.00;;;;;;;2.45;54.61;99911.41;5049124;28;20163;-38
2022/04/17 03:00:23;;;;;;;1.42;0.77;;;;;;;2.45;54.78;99907.13;5048438;28;20091;-38
2022/04/17 03:05:36;;;;;;;3.13;0.90;;;;;;;2.48;54.62;99917.38;5050219;28;20037;-38
2022/04/17 03:08:15;;;;;;;3.03;0.80;;;;;;;2.50;54.57;99913.13;5050139;28;20100;-38
2022/04/17 03:10:42;;;;;;;3.10;0.73;;;;;;;2.50;54.32;99910.56;5024971;28;20143;-38
2022/04/17 03:13:08;;;;;;;1.15;0.60;;;;;;;2.52;54.44;99911.41;5050357;28;20040;-37
2022/04/17 03:15:40;;;;;;;1.75;0.80;;;;;;;2.53;54.23;99907.13;5056399;28;20119;-38
2022/04/17 03:18:08;;;;;;;6.00;0.90;;;;;;;2.47;54.12;99899.41;5066776;28;20549;-37
2022/04/17 03:20:34;;;;;;;1.55;0.60;;;;;;;2.59;54.03;99911.41;5055450;28;20045;-39
2022/04/17 03:23:00;;;;;;;3.22;0.60;;;;;;;2.62;53.88;99911.44;5037497;28;20040;-37
2022/04/17 03:25:26;;;;;;;3.33;0.65;;;;;;;2.67;53.85;99908.00;5063599;28;20047;-38
2022/04/17 03:27:52;;;;;;;2.47;0.60;;;;;;;2.71;53.81;99920.00;5069099;28;20040;-38
2022/04/17 03:30:18;;;;;;;2.10;0.60;;;;;;;2.73;53.45;99919.97;5064446;28;20546;-39
2022/04/17 03:32:45;;;;;;;1.52;0.57;;;;;;;2.77;53.42;99926.84;5069116;28;20101;-39
2022/04/17 03:35:12;;;;;;;1.42;0.45;;;;;;;2.78;53.63;99926.84;5059628;28;20040;-39
2022/04/17 03:37:38;;;;;;;5.22;0.68;;;;;;;2.75;53.75;99933.69;5060803;28;20428;-38
2022/04/17 03:40:06;;;;;;;2.05;0.68;;;;;;;2.80;53.18;99927.69;5065015;28;20047;-37
2022/04/17 03:42:32;;;;;;;0.80;0.47;;;;;;;2.76;52.89;99938.81;5054676;28;20440;-38
2022/04/17 03:44:59;;;;;;;1.50;0.50;;;;;;;2.80;52.95;99940.53;5061991;28;20067;-39
2022/04/17 03:47:27;;;;;;;2.35;0.80;;;;;;;2.81;52.74;99946.53;5060973;28;20064;-39
2022/04/17 03:49:54;;;;;;;3.92;0.80;;;;;;;2.84;52.87;99943.94;5018737;28;20430;-37
2022/04/17 03:52:19;;;;;;;1.48;0.80;;;;;;;2.76;52.58;99931.13;5029578;28;20049;-37
2022/04/17 03:54:46;;;;;;;1.13;0.70;;;;;;;2.91;52.72;99951.69;5045113;28;20049;-38
2022/04/17 03:57:11;;;;;;;1.17;0.77;;;;;;;2.98;52.31;99944.84;5047744;28;20044;-39
2022/04/17 03:59:39;;;;;;;3.28;0.70;;;;;;;3.01;52.10;99952.53;5045761;28;20065;-38
2022/04/17 04:02:04;;;;;;;2.47;0.80;;;;;;;2.99;51.75;99949.97;5048488;28;20712;-39
2022/04/17 04:04:30;;;;;;;2.25;0.70;;;;;;;3.09;51.59;99961.09;5080932;28;20139;-40
2022/04/17 04:06:56;;;;;;;4.20;0.85;;;;;;;3.18;51.47;99961.09;5048401;28;20036;-39
2022/04/17 04:09:23;;;;;;;1.20;0.70;;;;;;;3.27;51.41;99958.53;5048412;28;20049;-39
2022/04/17 04:11:49;;;;;;;1.75;0.73;;;;;;;3.36;51.02;99962.78;5048313;28;20083;-40
2022/04/17 04:14:15;;;;;;;2.45;0.90;;;;;;;3.38;50.88;99954.22;5048411;28;20428;-38
2022/04/17 04:16:40;;;;;;;1.92;0.73;;;;;;;3.40;50.65;99947.34;5048419;28;20143;-38
2022/04/17 04:19:06;;;;;;;2.47;0.60;;;;;;;3.44;50.77;99958.50;5048456;28;20136;-38
2022/04/17 04:21:32;;;;;;;3.85;0.60;;;;;;;3.50;50.32;99966.22;5046770;28;20068;-38
2022/04/17 04:24:01;;;;;;;4.60;1.33;;;;;;;3.55;50.30;99956.78;5048737;28;20128;-38
2022/04/17 04:26:26;;;;;;;3.80;1.27;;;;;;;3.59;50.26;99968.78;5048238;28;20095;-40
2022/04/17 04:28:52;;;;;;;3.00;0.88;;;;;;;3.63;49.82;99967.03;5048191;28;20041;-38
2022/04/17 04:31:18;;;;;;;1.20;0.60;;;;;;;3.71;49.65;99976.47;5048874;28;20099;-38
2022/04/17 04:33:44;;;;;;;2.10;0.80;;;;;;;3.67;49.79;99950.75;5052503;28;20508;-39
2022/04/17 04:36:11;;;;;;;1.38;0.60;;;;;;;3.88;49.50;99966.13;5049597;28;20040;-39
2022/04/17 04:38:38;;;;;;;1.63;0.77;;;;;;;3.91;49.46;99973.84;5064917;28;20040;-38
2022/04/17 04:41:04;;;;;;;3.15;0.77;;;;;;;3.84;49.66;99964.41;5066181;28;20044;-38
2022/04/17 04:43:30;;;;;;;8.30;0.90;;;;;;;3.92;49.27;99985.84;5062391;28;20131;-39
2022/04/17 04:46:08;;;;;;;1.48;0.70;;;;;;;3.76;49.27;99956.75;5052005;28;20052;-39
2022/04/17 04:51:19;;;;;;;3.85;0.77;;;;;;;3.97;49.12;99985.81;5048374;28;20040;-38
2022/04/17 04:53:45;;;;;;;1.92;0.82;;;;;;;3.93;49.17;99969.53;5051900;28;20044;-39
2022/04/17 04:56:10;;;;;;;2.50;0.70;;;;;;;4.04;48.63;99985.78;5054579;28;20086;-38
2022/04/17 04:58:36;;;;;;;1.08;0.70;;;;;;;4.12;48.49;99978.91;5064926;28;20047;-38
2022/04/17 05:01:02;;;;;;;1.52;0.82;;;;;;;4.20;48.40;99990.03;5049454;28;20114;-38
2022/04/17 05:03:28;;;;;;;0.93;0.65;;;;;;;4.33;48.33;99992.56;5054095;28;20076;-39
2022/04/17 05:05:54;;;;;;;1.60;0.70;;;;;;;4.45;48.32;99989.94;5058600;28;20076;-39
2022/04/17 05:08:22;;;;;;;2.63;0.80;;;;;;;4.53;47.67;99980.44;5058839;28;20045;-39
2022/04/17 05:10:48;;;;;;;2.50;0.70;;;;;;;4.84;47.80;100002.59;5046330;28;20055;-38
2022/04/17 05:13:14;;;;;;;3.85;0.80;;;;;;;5.04;47.22;99994.72;5048473;28;20369;-38
2022/04/17 05:15:40;;;;;;;5.82;0.70;;;;;;;5.26;46.40;99992.84;5059853;28;20048;-39
2022/04/17 05:18:06;;;;;;;1.83;0.90;;;;;;;5.44;45.89;99988.38;5067788;28;20139;-38
2022/04/17 05:20:33;;;;;;;1.95;0.80;;;;;;;5.64;46.39;99992.50;5050547;28;20059;-38
2022/04/17 05:23:17;;;;;;;2.83;0.80;;;;;;;5.82;45.85;99997.47;5047604;28;20040;-40
2022/04/17 05:25:44;;;;;;;5.78;0.95;;;;;;;5.95;45.10;99988.78;5066324;28;20465;-39
2022/04/17 05:28:10;;;;;;;1.98;0.90;;;;;;;6.04;45.00;99980.06;5067863;28;20820;-38
2022/04/17 05:30:36;;;;;;;2.22;0.90;;;;;;;6.26;44.75;99984.97;5060925;28;20044;-38
2022/04/17 05:33:01;;;;;;;6.07;0.80;;;;;;;6.40;44.53;99997.72;5053790;28;20516;-39
2022/04/17 05:35:27;;;;;;;7.53;1.00;;;;;;;6.56;43.96;99986.31;5055203;28;20090;-39
2022/04/17 05:37:55;;;;;;;3.22;0.82;;;;;;;6.78;43.33;99984.28;5048825;28;20562;-38
2022/04/17 05:40:21;;;;;;;1.52;0.80;;;;;;;6.89;43.02;99976.38;5047041;28;20036;-39
2022/04/17 05:42:47;;;;;;;10.43;1.08;;;;;;;6.84;43.14;99979.03;5054253;28;20059;-39
2022/04/17 05:45:12;;;;;;;1.75;0.75;;;;;;;6.68;43.56;99954.28;5051027;28;20041;-39
2022/04/17 05:47:38;;;;;;;5.65;1.38;;;;;;;6.52;43.69;99969.16;5047911;28;20063;-37
2022/04/17 05:50:05;;;;;;;3.53;1.10;;;;;;;6.28;43.59;99954.81;5049450;28;20424;-39
2022/04/17 05:52:31;;;;;;;2.92;0.80;;;;;;;6.27;43.72;99978.94;5049675;28;20087;-41
2022/04/17 05:54:57;;;;;;;1.40;0.70;;;;;;;6.20;44.13;100000.53;5047765;28;20064;-39
2022/04/17 05:57:23;;;;;;;3.45;0.90;;;;;;;6.17;43.74;100004.88;5053448;28;20037;-39
2022/04/17 05:59:51;;;;;;;1.60;0.82;;;;;;;6.20;43.77;100003.13;5045126;28;20125;-39
2022/04/17 06:02:17;;;;;;;2.65;0.98;;;;;;;6.34;43.91;100002.94;5055365;28;20052;-38
2022/04/17 06:04:43;;;;;;;2.08;1.10;;;;;;;6.43;43.69;100002.84;5065933;28;20074;-39
2022/04/17 06:07:09;;;;;;;9.68;1.25;;;;;;;6.42;43.17;100001.13;5065854;28;20068;-39
2022/04/17 06:09:35;;;;;;;2.38;0.93;;;;;;;6.60;43.56;99997.44;5051363;28;20056;-39
2022/04/17 06:12:01;;;;;;;2.75;1.00;;;;;;;6.90;42.75;100011.69;5051186;28;20055;-39
2022/04/17 06:14:27;;;;;;;2.45;0.88;;;;;;;7.44;41.98;100013.41;5049919;28;20587;-38
2022/04/17 06:16:52;;;;;;;3.20;0.60;;;;;;;7.35;41.74;100010.13;5051306;28;20052;-39
2022/04/17 06:19:18;;;;;;;2.17;0.90;;;;;;;7.34;41.70;100005.84;5050586;28;20040;-39
2022/04/17 06:21:44;;;;;;;1.38;0.82;;;;;;;8.14;40.08;100013.91;5050954;28;20045;-40
2022/04/17 06:24:09;;;;;;;2.03;0.75;;;;;;;8.63;38.87;100003.44;5051013;28;20048;-40
2022/04/17 06:26:35;;;;;;;5.47;1.20;;;;;;;9.63;37.97;99990.72;5050952;28;20052;-38
2022/04/17 06:29:05;;;;;;;4.28;0.93;;;;;;;11.04;35.26;99997.91;5050433;28;20079;-38
2022/04/17 06:31:32;;;;;;;4.55;1.20;;;;;;;12.35;33.39;100005.69;5050715;28;20557;-39
2022/04/17 06:33:57;;;;;;;4.13;1.48;;;;;;;13.35;31.76;100013.13;5049443;28;20040;-39
2022/04/17 06:36:23;;;;;;;2.15;0.80;;;;;;;14.26;30.48;100006.63;5050920;28;20040;-40
2022/04/17 06:38:49;;;;;;;3.58;1.02;;;;;;;14.87;28.90;100009.09;5050359;28;20055;-39
2022/04/17 06:41:15;;;;;;;7.82;1.50;;;;;;;15.61;28.00;100021.25;5035977;28;20032;-40
2022/04/17 06:43:40;;;;;;;2.85;1.20;;;;;;;16.44;26.99;100016.06;5060128;28;20037;-41
2022/04/17 06:46:06;;;;;;;3.13;0.98;;;;;;;16.85;27.18;100023.56;5050645;28;20040;-38
2022/04/17 06:48:32;;;;;;;3.88;0.90;;;;;;;16.25;26.54;100030.25;5062007;28;20514;-38
2022/04/17 06:50:58;;;;;;;4.72;1.30;;;;;;;15.21;27.58;100019.69;5059578;28;20048;-40
2022/04/17 06:53:24;;;;;;;2.08;0.90;;;;;;;13.84;29.02;100016.31;5070372;28;20036;-41
2022/04/17 06:55:52;;;;;;;2.33;1.15;;;;;;;12.85;30.03;100014.22;5064204;28;20055;-39
2022/04/17 06:58:20;;;;;;;5.65;1.20;;;;;;;12.20;31.19;100007.06;5048072;28;20079;-38
2022/04/17 07:00:46;;;;;;;11.05;1.77;;;;;;;11.83;31.41;100013.56;5047769;28;20037;-40
2022/04/17 07:03:15;;;;;;;8.30;1.33;;;;;;;11.51;32.00;100011.19;5052982;28;20087;-40
2022/04/17 07:05:42;;;;;;;7.15;1.25;;;;;;;11.28;31.96;100018.88;5050020;28;20076;-40
2022/04/17 07:08:08;;;;;;;12.93;1.58;;;;;;;11.15;32.29;100010.59;5051567;28;20044;-40
2022/04/17 07:10:38;;;;;;;8.10;1.52;;;;;;;11.05;33.00;100004.84;5049179;28;20509;-40
2022/04/17 07:13:04;;;;;;;;;;;;;;;11.08;32.67;100000.44;5054029;28;20049;-38
2022/04/17 07:15:29;;;;;;;5.60;1.00;;;;;;;11.50;32.14;100004.28;5049675;28;20743;-39
2022/04/17 07:17:55;;;;;;;5.45;1.20;;;;;;;12.86;30.67;99998.53;5062513;28;20040;-40
2022/04/17 07:20:22;;;;;;;3.80;1.10;;;;;;;15.35;27.10;99998.06;5049895;28;20044;-40
2022/04/17 07:22:49;;;;;;;6.18;1.63;;;;;;;17.58;25.26;99999.22;5044175;28;20041;-39
2022/04/17 07:25:15;;;;;;;12.88;1.52;;;;;;;18.56;24.02;99995.09;5051386;28;20044;-41
2022/04/17 07:27:44;;;;;;;13.15;1.63;;;;;;;19.16;22.61;99988.63;5048181;28;20064;-40
2022/04/17 07:30:17;;;;;;;6.47;1.55;;;;;;;19.21;22.38;100007.66;5048417;28;20068;-40
2022/04/17 07:32:44;;;;;;;8.23;1.98;;;;;;;19.12;22.79;100006.44;5046306;28;20045;-40
2022/04/17 07:35:11;;;;;;;11.65;2.30;;;;;;;20.73;21.11;99997.31;5049376;28;20068;-41
2022/04/17 07:37:37;;;;;;;6.80;1.30;;;;;;;22.29;19.48;100005.00;5049412;28;20801;-40
2022/04/17 07:40:15;;;;;;;3.70;1.10;;;;;;;22.17;19.37;100008.59;5050955;28;20472;-40
2022/04/17 07:42:42;;;;;;;7.78;1.35;;;;;;;20.71;20.90;100005.34;5049319;28;20044;-41
2022/04/17 07:45:09;;;;;;;16.08;1.35;;;;;;;19.78;21.38;100003.00;5050870;28;20520;-40
2022/04/17 07:47:35;;;;;;;7.63;1.40;;;;;;;21.42;20.08;99980.78;5050470;28;20059;-41
2022/04/17 07:50:01;;;;;;;15.68;1.75;;;;;;;22.98;18.52;100018.97;5053446;28;20040;-40
2022/04/17 07:52:28;;;;;;;11.30;1.42;;;;;;;22.29;18.93;100012.13;5047170;28;21436;-41
2022/04/17 07:54:55;;;;;;;4.75;1.15;;;;;;;20.18;20.32;100024.91;5044243;28;20057;-40
2022/04/17 07:57:22;;;;;;;3.83;0.80;;;;;;;18.36;21.72;100010.38;5046480;28;20098;-39
2022/04/17 07:59:50;;;;;;;4.85;0.90;;;;;;;17.14;22.77;100021.94;5037547;28;20117;-40
2022/04/17 08:02:22;;;;;;;8.93;1.50;;;;;;;16.24;23.33;100029.38;5047514;28;20444;-39
2022/04/17 08:04:50;;;;;;;7.90;1.08;;;;;;;15.43;24.55;100010.78;5046335;28;20799;-39
2022/04/17 08:07:16;;;;;;;5.45;1.20;;;;;;;14.88;24.67;100018.66;5039213;28;20140;-40
2022/04/17 08:09:42;;;;;;;6.80;1.17;;;;;;;14.41;25.25;100010.34;5045134;28;20457;-42
2022/04/17 08:12:08;;;;;;;6.57;1.10;;;;;;;13.89;25.85;99989.06;5047705;28;20047;-42
2022/04/17 08:14:33;;;;;;;4.65;1.00;;;;;;;13.79;26.05;100013.06;5047974;28;20033;-42
2022/04/17 08:16:59;;;;;;;1.67;0.90;;;;;;;13.49;26.21;100016.03;5048784;28;20037;-41
2022/04/17 08:19:25;;;;;;;3.63;1.08;;;;;;;13.31;26.85;100021.13;5047961;28;20468;-42
2022/04/17 08:21:51;;;;;;;1.25;0.95;;;;;;;13.13;27.23;100025.34;5049686;28;20040;-42
2022/04/17 08:24:18;;;;;;;4.80;0.90;;;;;;;12.84;27.45;100004.69;5064539;28;20048;-41
2022/04/17 08:26:44;;;;;;;3.85;1.20;;;;;;;12.77;27.47;100019.72;5048000;28;20562;-42
2022/04/17 08:29:11;;;;;;;14.25;1.55;;;;;;;12.52;28.33;100039.81;5047759;28;20032;-41
2022/04/17 08:31:36;;;;;;;5.53;0.98;;;;;;;12.33;28.94;100042.25;5047605;28;20106;-42
2022/04/17 08:34:03;;;;;;;16.00;2.15;;;;;;;12.24;28.61;100034.75;5046963;28;20132;-41
2022/04/17 08:36:28;;;;;;;10.88;1.80;;;;;;;12.11;29.19;100038.69;5047460;28;20036;-42
2022/04/17 08:38:54;;;;;;;3.45;0.90;;;;;;;11.86;29.39;100038.69;5046798;28;20541;-40
2022/04/17 08:41:23;;;;;;;5.13;1.13;;;;;;;11.70;29.36;100040.06;5044262;28;20052;-40
2022/04/17 08:43:48;;;;;;;24.25;2.35;;;;;;;11.53;30.03;100043.22;5040123;28;20127;-40
2022/04/17 08:46:14;;;;;;;15.55;1.58;;;;;;;11.35;29.92;100046.44;5047151;28;20536;-40
2022/04/17 08:48:40;;;;;;;13.75;1.40;;;;;;;11.31;30.49;100052.59;5048700;28;20135;-41
2022/04/17 08:51:06;;;;;;;3.08;1.38;;;;;;;11.17;30.50;100042.63;5046798;28;20045;-39
2022/04/17 08:53:33;;;;;;;5.78;1.70;;;;;;;11.05;30.47;100040.41;5046317;28;20045;-41
2022/04/17 08:55:59;;;;;;;5.97;2.20;;;;;;;11.06;31.02;100042.13;5047942;28;20044;-42
2022/04/17 08:58:24;;;;;;;9.07;1.95;;;;;;;11.07;30.87;100042.97;5044839;28;20044;-41
2022/04/17 09:00:50;;;;;;;15.98;4.43;;;;;;;11.11;31.19;100032.41;5047316;28;20082;-41
2022/04/17 09:03:16;;;;;;;10.23;3.95;;;;;;;11.16;31.02;100046.13;5047886;28;20049;-41
2022/04/17 09:05:42;;;;;;;5.82;1.85;;;;;;;11.17;30.94;100047.84;5079808;28;20049;-41
2022/04/17 09:08:16;;;;;;;4.85;1.00;;;;;;;11.10;31.22;100054.13;5045925;28;20059;-40
2022/04/17 09:10:55;;;;;;;3.72;1.10;;;;;;;11.04;30.85;100041.31;5049459;28;20051;-42
2022/04/17 09:13:29;;;;;;;4.80;1.30;;;;;;;11.04;30.79;100047.34;5046010;28;20124;-42
2022/04/17 09:15:55;;;;;;;3.95;0.93;;;;;;;11.03;31.22;100039.63;5046425;28;20045;-42
2022/04/17 09:18:21;;;;;;;5.13;1.13;;;;;;;11.21;30.84;100027.78;5045910;28;20041;-42
2022/04/17 09:20:47;;;;;;;7.95;1.40;;;;;;;11.32;30.54;100034.34;5045709;28;20124;-42
2022/04/17 09:23:13;;;;;;;6.97;0.80;;;;;;;11.59;30.62;100036.97;5045821;28;20140;-41
2022/04/17 09:25:39;;;;;;;14.30;3.85;;;;;;;12.00;29.53;100038.19;5046266;28;20075;-41
2022/04/17 09:28:06;;;;;;;5.30;1.40;;;;;;;12.34;29.45;100027.47;5046947;28;20488;-42
2022/04/17 09:30:40;;;;;;;2.72;0.75;;;;;;;12.63;28.86;100042.88;5046497;28;20041;-41
2022/04/17 09:33:09;;;;;;;4.43;1.42;;;;;;;12.96;28.73;100046.00;5047886;28;20562;-41
2022/04/17 09:35:38;;;;;;;7.97;4.68;;;;;;;13.40;28.32;100036.44;5046603;28;20049;-41
2022/04/17 09:38:05;;;;;;;4.68;1.25;;;;;;;13.76;28.12;100032.34;5047834;28;20664;-42
2022/04/17 09:40:32;;;;;;;3.92;1.13;;;;;;;14.09;27.47;100037.88;5047533;28;20505;-41
2022/04/17 09:43:12;;;;;;;8.02;1.00;;;;;;;14.05;27.27;100048.53;5046466;28;20405;-40
2022/04/17 09:45:59;;;;;;;6.70;1.20;;;;;;;14.06;27.56;100045.88;5050983;28;20526;-43
2022/04/17 09:48:25;;;;;;;6.68;1.20;;;;;;;13.85;27.44;100057.22;5049866;28;20170;-41
2022/04/17 09:50:51;;;;;;;4.75;0.95;;;;;;;13.32;27.63;100064.63;5042217;28;20049;-41
2022/04/17 09:53:30;;;;;;;4.18;1.55;;;;;;;12.79;28.11;100061.44;5051596;28;20035;-39
2022/04/17 09:56:10;;;;;;;1.77;1.02;;;;;;;12.49;28.57;100048.63;5051530;28;20058;-42
2022/04/17 09:58:37;;;;;;;6.20;1.20;;;;;;;12.40;28.83;100050.72;5045877;28;20037;-41
2022/04/17 10:01:06;;;;;;;8.07;1.20;;;;;;;12.25;29.40;100055.53;5074292;28;20032;-41
2022/04/17 10:03:35;;;;;;;6.18;2.63;;;;;;;12.18;29.49;100050.63;5050760;28;20060;-40
2022/04/17 10:06:01;;;;;;;9.38;5.25;;;;;;;12.05;29.30;100052.78;5049710;28;20043;-43
2022/04/17 10:08:28;;;;;;;4.22;1.90;;;;;;;12.04;29.34;100050.22;5050101;28;20048;-43
2022/04/17 10:10:54;;;;;;;7.38;1.20;;;;;;;12.03;29.64;100044.19;5077473;28;20041;-43
2022/04/17 10:13:21;;;;;;;5.95;1.30;;;;;;;12.08;29.49;100050.09;5049518;28;20504;-41
2022/04/17 10:15:48;;;;;;;4.93;1.13;;;;;;;12.07;29.55;100045.78;5021055;28;20048;-42
2022/04/17 10:18:14;;;;;;;3.58;1.30;;;;;;;12.00;30.27;100052.09;5050518;28;20037;-41
2022/04/17 10:20:41;;;;;;;10.20;1.40;;;;;;;11.83;30.45;100030.97;5048849;28;20095;-40
2022/04/17 10:23:09;;;;;;;3.58;1.38;;;;;;;11.74;30.19;100052.97;5050621;28;20043;-40
2022/04/17 10:25:36;;;;;;;18.92;4.97;;;;;;;11.57;30.13;100055.22;5082445;28;20084;-40
2022/04/17 10:28:05;;;;;;;7.35;2.70;;;;;;;11.48;30.38;100051.19;5049440;28;20045;-41
2022/04/17 10:31:06;;;;;;;7.10;1.65;;;;;;;11.46;31.14;100059.97;5075959;28;20440;-40
2022/04/17 10:33:45;;;;;;;12.75;3.05;;;;;;;11.45;31.20;100061.72;5046403;28;20051;-41
2022/04/17 10:36:34;;;;;;;9.75;2.42;;;;;;;11.46;30.80;100067.78;5065097;28;20045;-41
2022/04/17 10:39:13;;;;;;;9.82;1.98;;;;;;;11.25;31.15;100060.63;5038022;28;20044;-41
2022/04/17 10:41:41;;;;;;;14.63;3.80;;;;;;;11.13;30.85;100061.00;5081751;28;20104;-43
2022/04/17 10:44:09;;;;;;;9.45;2.00;;;;;;;11.14;31.15;100063.56;5049103;28;20059;-41
2022/04/17 10:46:52;;;;;;;38.83;4.43;;;;;;;11.18;31.16;100061.72;5048991;28;20049;-40
2022/04/17 10:49:19;;;;;;;15.90;2.97;;;;;;;11.19;31.00;100063.41;5039046;28;20433;-41
2022/04/17 10:51:56;;;;;;;10.13;3.83;;;;;;;11.18;30.99;100059.97;5048372;28;20109;-40
2022/04/17 10:54:23;;;;;;;7.82;2.22;;;;;;;11.19;30.96;100072.09;5044655;28;20050;-40
2022/04/17 10:56:55;;;;;;;15.60;4.28;;;;;;;11.20;31.19;100058.16;5048885;28;20037;-40
2022/04/17 10:59:21;;;;;;;8.73;2.78;;;;;;;11.15;30.90;100069.63;5057264;28;20045;-40
2022/04/17 11:01:52;;;;;;;13.35;2.33;;;;;;;11.14;30.84;100062.72;5056255;28;20071;-40
2022/04/17 11:04:28;;;;;;;4.47;2.00;;;;;;;11.15;30.89;100056.63;5048588;28;20816;-41
2022/04/17 11:07:21;;;;;;;8.25;1.77;;;;;;;11.12;31.10;100051.47;5048511;28;20045;-39
2022/04/17 11:09:47;;;;;;;8.25;2.05;;;;;;;11.12;31.05;100054.09;5048949;28;20057;-41
2022/04/17 11:12:18;;;;;;;10.60;2.10;;;;;;;11.15;31.28;100054.84;5047503;28;20574;-38
2022/04/17 11:15:02;;;;;;;8.30;1.55;;;;;;;11.22;31.13;100055.50;5049344;28;20508;-41
2022/04/17 11:17:31;;;;;;;11.90;1.83;;;;;;;11.38;30.74;100052.38;5047687;28;20040;-41
2022/04/17 11:19:59;;;;;;;10.25;2.45;;;;;;;11.46;31.13;100052.97;5060789;28;20044;-40
2022/04/17 11:22:33;;;;;;;12.73;3.78;;;;;;;11.61;30.85;100050.78;5049529;28;20036;-39
2022/04/17 11:25:00;;;;;;;11.13;3.13;;;;;;;11.86;30.78;100042.16;5046251;28;20118;-40
2022/04/17 11:27:32;;;;;;;12.82;2.30;;;;;;;12.21;30.15;100046.13;5051256;28;20044;-41
2022/04/17 11:30:01;;;;;;;4.43;1.85;;;;;;;12.40;29.88;100043.75;5047090;28;20393;-40
2022/04/17 11:32:30;;;;;;;9.82;2.70;;;;;;;12.56;29.67;100046.66;5061405;28;20062;-40
2022/04/17 11:34:57;;;;;;;12.70;2.97;;;;;;;12.69;29.07;100038.28;5049460;28;20501;-42
2022/04/17 11:37:27;;;;;;;6.05;2.55;;;;;;;12.84;29.14;100039.47;5048744;28;20060;-41
2022/04/17 11:39:54;;;;;;;9.57;1.75;;;;;;;12.96;28.79;100038.16;5048669;28;20052;-40
2022/04/17 11:42:20;;;;;;;6.88;1.70;;;;;;;12.91;28.66;100035.72;5048460;28;20040;-40
2022/04/17 11:44:50;;;;;;;9.05;1.73;;;;;;;12.95;28.49;100044.28;5050662;28;20044;-39